createdAt,value
2019-02-21T00:01:34.962Z,1.62
2019-02-21T00:04:40.698Z,1.87
2019-02-21T00:07:46.576Z,2.10
2019-02-21T00:10:52.327Z,1.72
2019-02-21T00:13:58.224Z,1.55
2019-02-21T00:17:04.039Z,1.70
2019-02-21T00:20:09.999Z,1.87
2019-02-21T00:23:15.898Z,1.70
2019-02-21T00:26:21.615Z,1.70
2019-02-21T00:29:27.267Z,1.80
2019-02-21T00:32:33.123Z,1.57
2019-02-21T00:35:38.868Z,1.85
2019-02-21T00:38:44.659Z,1.60
2019-02-21T00:41:50.384Z,1.92
2019-02-21T00:44:56.139Z,1.50
2019-02-21T00:48:02.002Z,1.62
2019-02-21T00:51:07.868Z,1.75
2019-02-21T00:54:13.544Z,2.20
2019-02-21T00:57:19.369Z,1.70
2019-02-21T01:00:25.271Z,1.80
2019-02-21T01:03:30.975Z,1.80
2019-02-21T01:06:36.842Z,2.08
2019-02-21T01:09:42.633Z,1.80
2019-02-21T01:12:48.450Z,1.90
2019-02-21T01:15:54.211Z,1.72
2019-02-21T01:19:00.308Z,1.80
2019-02-21T01:22:06.123Z,2.00
2019-02-21T01:25:12.035Z,1.70
2019-02-21T01:28:17.728Z,1.80
2019-02-21T01:31:23.487Z,1.80
2019-02-21T01:34:29.281Z,2.17
2019-02-21T01:37:35.003Z,1.70
2019-02-21T01:40:41.112Z,2.00
2019-02-21T01:43:46.999Z,2.22
2019-02-21T01:46:52.679Z,2.10
2019-02-21T01:49:58.675Z,2.00
2019-02-21T01:53:04.501Z,2.05
2019-02-21T01:56:10.396Z,2.10
2019-02-21T01:59:16.247Z,2.40
2019-02-21T02:02:22.072Z,2.20
2019-02-21T02:05:27.963Z,2.33
2019-02-21T02:08:33.871Z,2.20
2019-02-21T02:11:39.643Z,2.27
2019-02-21T02:14:45.595Z,2.20
2019-02-21T02:17:52.486Z,2.00
2019-02-21T02:20:58.275Z,2.45
2019-02-21T02:24:04.195Z,2.20
2019-02-21T02:27:10.051Z,2.52
2019-02-21T02:30:15.952Z,2.40
2019-02-21T02:33:21.872Z,2.60
2019-02-21T02:36:27.785Z,2.22
2019-02-21T02:39:33.698Z,2.40
2019-02-21T02:42:39.588Z,2.33
2019-02-21T02:45:45.381Z,2.47
2019-02-21T02:48:52.403Z,3.15
2019-02-21T02:51:58.288Z,2.62
2019-02-21T02:55:04.252Z,2.55
2019-02-21T02:58:10.068Z,2.70
2019-02-21T03:01:15.928Z,2.65
2019-02-21T03:04:21.821Z,2.80
2019-02-21T03:07:28.661Z,2.62
2019-02-21T03:10:34.516Z,2.58
2019-02-21T03:13:40.395Z,2.20
2019-02-21T03:16:46.242Z,1.75
2019-02-21T03:19:52.098Z,2.27
2019-02-21T03:22:58.054Z,2.75
2019-02-21T03:26:04.021Z,3.05
2019-02-21T03:29:09.880Z,3.00
2019-02-21T03:32:15.945Z,3.37
2019-02-21T03:35:21.930Z,3.47
2019-02-21T03:38:27.761Z,3.30
2019-02-21T03:41:33.613Z,3.77
2019-02-21T03:44:39.577Z,3.30
2019-02-21T03:47:45.541Z,3.20
2019-02-21T03:50:51.526Z,3.85
2019-02-21T03:53:57.352Z,3.70
2019-02-21T03:57:03.147Z,4.10
2019-02-21T04:00:09.368Z,3.85
2019-02-21T04:03:15.231Z,4.05
2019-02-21T04:06:21.087Z,4.17
2019-02-21T04:09:26.981Z,3.80
2019-02-21T04:12:32.688Z,3.90
2019-02-21T04:15:38.552Z,4.12
2019-02-21T04:18:44.404Z,4.40
2019-02-21T04:21:50.377Z,3.92
2019-02-21T04:24:56.120Z,4.22
2019-02-21T04:28:01.980Z,4.22
2019-02-21T04:31:07.771Z,4.22
2019-02-21T04:34:13.599Z,3.95
2019-02-21T04:37:19.459Z,4.22
2019-02-21T04:40:25.207Z,4.50
2019-02-21T04:43:31.065Z,5.12
2019-02-21T04:46:36.956Z,4.45
2019-02-21T04:49:42.676Z,4.33
2019-02-21T04:52:49.623Z,4.90
2019-02-21T04:55:55.520Z,4.47
2019-02-21T04:59:01.169Z,4.25
2019-02-21T05:02:07.185Z,4.97
2019-02-21T05:05:13.093Z,5.15
2019-02-21T05:08:19.161Z,5.25
2019-02-21T05:11:25.153Z,5.30
2019-02-21T05:14:31.179Z,5.83
2019-02-21T05:17:38.105Z,5.28
2019-02-21T05:20:44.024Z,5.60
2019-02-21T05:23:49.983Z,5.80
2019-02-21T05:27:00.747Z,5.60
2019-02-21T05:30:08.280Z,6.12
2019-02-21T05:33:35.824Z,4.90
2019-02-21T05:36:59.849Z,5.33
2019-02-21T05:40:31.490Z,5.60
2019-02-21T05:44:08.271Z,4.80
2019-02-21T05:47:39.044Z,4.90
2019-02-21T05:50:58.305Z,4.90
2019-02-21T05:54:12.853Z,4.50
2019-02-21T05:57:46.524Z,5.05
2019-02-21T06:01:01.922Z,4.75
2019-02-21T06:04:25.208Z,4.40
2019-02-21T06:07:53.014Z,4.33
2019-02-21T06:11:08.037Z,4.15
2019-02-21T06:14:31.749Z,4.15
2019-02-21T06:18:02.388Z,4.22
2019-02-21T06:21:33.175Z,4.12
2019-02-21T06:24:54.044Z,4.30
2019-02-21T06:28:06.960Z,3.22
2019-02-21T06:31:16.164Z,3.40
2019-02-21T06:34:22.005Z,3.87
2019-02-21T06:37:28.003Z,5.42
2019-02-21T06:40:36.436Z,5.05
2019-02-21T06:43:41.572Z,4.87
2019-02-21T06:46:47.492Z,5.05
2019-02-21T06:49:53.453Z,4.03
2019-02-21T06:52:59.552Z,3.83
2019-02-21T06:56:05.472Z,3.20
2019-02-21T06:59:11.701Z,3.40
2019-02-21T07:02:17.807Z,3.08
2019-02-21T07:05:23.755Z,3.08
2019-02-21T07:08:29.785Z,2.77
2019-02-21T07:11:35.776Z,3.10
2019-02-21T07:14:41.793Z,3.40
2019-02-21T07:17:49.606Z,3.15
2019-02-21T07:20:55.199Z,2.72
2019-02-21T07:24:02.118Z,2.62
2019-02-21T07:27:08.239Z,2.72
2019-02-21T07:30:19.697Z,3.37
2019-02-21T07:33:28.525Z,3.08
2019-02-21T07:36:29.300Z,3.00
2019-02-21T07:39:36.426Z,2.72
2019-02-21T07:42:42.439Z,2.50
2019-02-21T07:45:48.313Z,2.95
2019-02-21T07:48:54.210Z,7.67
2019-02-21T07:52:00.021Z,4.50
2019-02-21T07:55:05.912Z,4.50
2019-02-21T07:58:12.136Z,4.72
2019-02-21T08:01:21.009Z,3.52
2019-02-21T08:04:26.900Z,3.22
2019-02-21T08:07:32.885Z,3.30
2019-02-21T08:10:38.792Z,3.33
2019-02-21T08:13:44.649Z,3.60
2019-02-21T08:16:50.462Z,2.85
2019-02-21T08:20:07.473Z,3.33
2019-02-21T08:23:04.140Z,2.95
2019-02-21T08:26:10.238Z,3.42
2019-02-21T08:29:16.180Z,2.87
2019-02-21T08:32:27.015Z,3.42
2019-02-21T08:35:32.820Z,3.27
2019-02-21T08:38:38.735Z,3.27
2019-02-21T08:41:44.699Z,3.40
2019-02-21T08:44:50.547Z,3.30
2019-02-21T08:47:56.507Z,2.92
2019-02-21T08:51:02.471Z,3.42
2019-02-21T08:54:08.329Z,3.10
2019-02-21T08:57:15.315Z,2.98
2019-02-21T09:00:21.063Z,3.02
2019-02-21T09:03:26.921Z,3.52
2019-02-21T09:06:32.689Z,2.67
2019-02-21T09:09:38.656Z,3.00
2019-02-21T09:12:48.180Z,2.62
2019-02-21T09:15:52.097Z,2.60
2019-02-21T09:18:57.960Z,2.90
2019-02-21T09:22:03.907Z,2.52
2019-02-21T09:25:11.621Z,2.80
2019-02-21T09:28:17.465Z,2.95
2019-02-21T09:31:23.444Z,2.87
2019-02-21T09:34:29.341Z,2.42
2019-02-21T09:37:35.254Z,2.90
2019-02-21T09:40:42.720Z,2.60
2019-02-21T09:43:50.981Z,2.87
2019-02-21T09:46:56.422Z,2.60
2019-02-21T09:50:02.328Z,2.90
2019-02-21T09:53:08.336Z,2.40
2019-02-21T09:56:14.292Z,2.50
2019-02-21T09:59:20.252Z,2.83
2019-02-21T10:02:26.108Z,2.70
2019-02-21T10:05:32.320Z,3.30
2019-02-21T10:08:38.337Z,3.45
2019-02-21T10:11:44.366Z,3.17
2019-02-21T10:14:50.352Z,2.92
2019-02-21T10:17:56.852Z,3.10
2019-02-21T10:21:15.030Z,3.00
2019-02-21T10:24:20.821Z,2.50
2019-02-21T10:27:26.679Z,2.60
2019-02-21T10:30:32.792Z,3.00
2019-02-21T10:33:46.568Z,2.92
2019-02-21T10:36:46.456Z,3.25
2019-02-21T10:39:52.337Z,2.75
2019-02-21T10:42:58.337Z,2.27
2019-02-21T10:46:04.332Z,2.95
2019-02-21T10:49:10.244Z,2.95
2019-02-21T10:52:16.270Z,2.70
2019-02-21T10:55:22.163Z,2.47
2019-02-21T10:58:28.092Z,2.02
2019-02-21T11:01:34.137Z,1.95
2019-02-21T11:04:42.148Z,2.27
2019-02-21T11:07:47.640Z,2.35
2019-02-21T11:10:54.160Z,2.25
2019-02-21T11:13:59.970Z,2.45
2019-02-21T11:17:05.872Z,2.12
2019-02-21T11:20:13.745Z,2.10
2019-02-21T11:23:20.930Z,2.10
2019-02-21T11:26:36.313Z,2.35
2019-02-21T11:29:41.958Z,2.00
2019-02-21T11:32:48.159Z,1.80
2019-02-21T11:35:54.190Z,1.90
2019-02-21T11:39:00.921Z,2.12
2019-02-21T11:42:08.306Z,2.08
2019-02-21T11:45:15.545Z,1.87
2019-02-21T11:48:22.572Z,1.90
2019-02-21T11:51:28.648Z,1.77
2019-02-21T11:59:38.074Z,1.85
2019-02-21T12:07:59.393Z,1.72
2019-02-21T12:11:07.328Z,1.98
2019-02-21T12:14:13.292Z,1.90
2019-02-21T12:17:19.253Z,1.70
2019-02-21T12:20:25.109Z,2.33
2019-02-21T12:23:30.872Z,1.60
2019-02-21T12:26:36.826Z,1.80
2019-02-21T12:29:42.676Z,1.50
2019-02-21T12:32:48.647Z,1.75
2019-02-21T12:35:54.627Z,1.42
2019-02-21T12:39:00.578Z,1.60
2019-02-21T12:42:07.892Z,1.55
2019-02-21T12:45:15.957Z,1.50
2019-02-21T12:48:21.820Z,1.40
2019-02-21T12:51:27.572Z,1.40
2019-02-21T12:54:33.544Z,1.25
2019-02-21T12:57:39.544Z,1.40
2019-02-21T13:00:45.583Z,1.35
2019-02-21T13:03:51.540Z,1.57
2019-02-21T13:06:57.384Z,1.60
2019-02-21T13:10:03.241Z,1.22
2019-02-21T13:13:09.145Z,1.32
2019-02-21T13:16:14.959Z,1.60
2019-02-21T13:19:20.811Z,1.22
2019-02-21T13:22:26.634Z,1.60
2019-02-21T13:25:32.634Z,1.32
2019-02-21T13:28:38.488Z,1.37
2019-02-21T13:31:44.488Z,1.30
2019-02-21T13:34:50.410Z,1.40
2019-02-21T13:37:56.219Z,0.90
2019-02-21T13:41:02.121Z,1.20
2019-02-21T13:44:08.172Z,1.30
2019-02-21T13:47:14.093Z,1.22
2019-02-21T13:50:19.892Z,1.30
2019-02-21T14:02:17.624Z,1.40
2019-02-21T14:05:23.625Z,1.15
2019-02-21T14:08:32.620Z,1.20
2019-02-21T14:11:38.468Z,1.10
2019-02-21T14:14:44.337Z,1.20
2019-02-21T14:17:50.088Z,1.20
2019-02-21T14:20:55.932Z,1.20
2019-02-21T14:24:01.807Z,1.77
2019-02-21T14:27:08.885Z,2.85
2019-02-21T14:30:16.719Z,1.60
2019-02-21T14:33:22.556Z,1.95
2019-02-21T14:36:28.396Z,1.62
2019-02-21T14:44:09.341Z,1.62
2019-02-21T14:47:15.280Z,1.57
2019-02-21T14:50:21.128Z,1.40
2019-02-21T14:53:27.034Z,1.70
2019-02-21T14:56:33.214Z,1.20
2019-02-21T14:59:39.134Z,1.65
2019-02-21T15:02:45.064Z,1.77
2019-02-21T15:05:51.062Z,1.37
2019-02-21T15:08:57.191Z,1.32
2019-02-21T15:12:03.200Z,1.30
2019-02-21T15:15:10.040Z,1.40
2019-02-21T15:18:16.145Z,1.70
2019-02-21T15:21:22.070Z,1.45
2019-02-21T15:24:28.055Z,1.27
2019-02-21T15:27:33.981Z,1.42
2019-02-21T15:30:39.950Z,1.50
2019-02-21T15:33:45.867Z,1.60
2019-02-21T15:36:51.760Z,1.57
2019-02-21T15:39:57.763Z,1.35
2019-02-21T15:43:05.355Z,1.27
2019-02-21T15:46:11.382Z,1.32
2019-02-21T15:49:17.422Z,1.45
2019-02-21T15:52:23.402Z,1.25
2019-02-21T15:55:32.084Z,1.32
2019-02-21T15:58:37.060Z,1.32
2019-02-21T16:01:47.618Z,1.30
2019-02-21T16:04:50.464Z,1.15
2019-02-21T16:07:56.333Z,1.40
2019-02-21T16:11:04.140Z,1.30
2019-02-21T16:14:09.937Z,1.10
2019-02-21T16:17:15.931Z,1.10
2019-02-21T16:20:22.119Z,1.17
2019-02-21T16:23:28.221Z,1.20
2019-02-21T16:26:34.141Z,1.50
2019-02-21T16:29:40.288Z,1.32
2019-02-21T16:32:47.357Z,1.20
2019-02-21T16:35:53.384Z,1.20
2019-02-21T16:38:59.180Z,1.40
2019-02-21T16:42:04.904Z,1.00
2019-02-21T16:45:11.929Z,1.30
2019-02-21T16:48:17.855Z,2.12
2019-02-21T16:51:23.696Z,1.50
2019-02-21T16:54:29.664Z,1.25
2019-02-21T16:57:35.860Z,2.30
2019-02-21T17:00:51.394Z,1.60
2019-02-21T17:03:49.188Z,1.50
2019-02-21T17:06:55.045Z,1.27
2019-02-21T17:10:03.893Z,1.37
2019-02-21T17:13:12.100Z,1.50
2019-02-21T17:16:19.440Z,1.30
2019-02-21T17:19:25.471Z,1.40
2019-02-21T17:22:31.721Z,1.42
2019-02-21T17:25:37.960Z,1.22
2019-02-21T17:28:44.175Z,1.62
2019-02-21T17:31:50.086Z,1.35
2019-02-21T17:34:56.272Z,1.60
2019-02-21T17:38:02.817Z,1.40
2019-02-21T17:41:08.930Z,1.25
2019-02-21T17:44:15.135Z,1.40
2019-02-21T17:47:21.076Z,1.10
2019-02-21T17:50:27.081Z,1.20
2019-02-21T17:53:33.280Z,1.15
2019-02-21T17:56:41.437Z,1.20
2019-02-21T17:59:47.408Z,1.20
2019-02-21T18:02:53.227Z,1.10
2019-02-21T18:05:59.088Z,1.30
2019-02-21T18:09:05.600Z,1.40
2019-02-21T18:12:12.945Z,1.30
2019-02-21T18:15:18.939Z,1.20
2019-02-21T18:18:24.786Z,1.10
2019-02-21T18:21:30.732Z,1.50
2019-02-21T18:24:36.692Z,1.27
2019-02-21T18:27:42.649Z,1.20
2019-02-21T18:30:48.651Z,1.32
2019-02-21T18:33:54.351Z,1.10
2019-02-21T18:37:00.220Z,1.00
2019-02-21T18:40:16.987Z,1.22
2019-02-21T18:43:14.910Z,1.30
2019-02-21T18:46:20.819Z,1.00
2019-02-21T18:49:26.607Z,1.32
2019-02-21T18:52:32.580Z,1.20
2019-02-21T18:55:38.476Z,1.20
2019-02-21T18:58:44.401Z,1.15
2019-02-21T19:01:50.355Z,1.30
2019-02-21T19:04:56.108Z,1.20
2019-02-21T19:08:05.315Z,1.57
2019-02-21T19:11:09.708Z,1.15
2019-02-21T19:14:15.736Z,1.17
2019-02-21T19:17:21.483Z,1.05
2019-02-21T19:20:27.594Z,0.93
2019-02-21T19:23:33.516Z,1.27
2019-02-21T19:26:39.412Z,1.02
2019-02-21T19:29:45.321Z,1.37
2019-02-21T19:32:51.284Z,1.00
2019-02-21T19:35:57.491Z,1.20
2019-02-21T19:39:04.926Z,1.00
2019-02-21T19:42:12.488Z,1.35
2019-02-21T19:45:18.810Z,1.40
2019-02-21T19:48:24.796Z,0.95
2019-02-21T19:51:30.671Z,1.05
2019-02-21T19:54:36.587Z,1.15
2019-02-21T19:57:42.476Z,1.20
2019-02-21T20:00:48.459Z,0.95
2019-02-21T20:03:54.364Z,1.17
2019-02-21T20:07:01.496Z,0.90
2019-02-21T20:10:07.946Z,1.00
2019-02-21T20:13:15.272Z,1.10
2019-02-21T20:16:21.384Z,0.85
2019-02-21T20:19:27.343Z,1.10
2019-02-21T20:22:33.336Z,1.00
2019-02-21T20:25:39.515Z,1.07
2019-02-21T20:28:45.632Z,1.20
2019-02-21T20:31:51.736Z,1.05
2019-02-21T20:34:58.375Z,1.20
2019-02-21T20:38:09.148Z,1.20
2019-02-21T20:41:19.923Z,1.30
2019-02-21T20:44:25.893Z,1.65
2019-02-21T20:47:31.863Z,1.40
2019-02-21T20:50:37.927Z,2.55
2019-02-21T20:53:43.860Z,2.60
2019-02-21T20:56:49.720Z,1.80
2019-02-21T20:59:55.684Z,1.90
2019-02-21T21:03:01.555Z,2.00
2019-02-21T21:06:07.435Z,1.95
2019-02-21T21:09:13.353Z,1.70
2019-02-21T21:12:19.216Z,1.47
2019-02-21T21:15:25.167Z,1.45
2019-02-21T21:18:34.156Z,1.65
2019-02-21T21:21:39.887Z,1.50
2019-02-21T21:24:45.815Z,1.72
2019-02-21T21:27:52.076Z,1.62
2019-02-21T21:30:57.940Z,1.65
2019-02-21T21:34:03.836Z,1.55
2019-02-21T21:37:09.796Z,1.40
2019-02-21T21:40:16.151Z,1.70
2019-02-21T21:43:21.876Z,1.30
2019-02-21T21:46:27.636Z,1.40
2019-02-21T21:49:33.504Z,1.40
2019-02-21T21:52:39.459Z,1.60
2019-02-21T21:55:45.316Z,1.20
2019-02-21T21:58:51.065Z,1.70
2019-02-21T22:01:56.999Z,1.40
2019-02-21T22:05:02.886Z,1.62
2019-02-21T22:08:09.981Z,1.85
2019-02-21T22:11:15.968Z,1.50
2019-02-21T22:14:21.892Z,1.60
2019-02-21T22:17:27.855Z,1.75
2019-02-21T22:20:33.747Z,1.57
2019-02-21T22:23:39.668Z,1.65
2019-02-21T22:26:45.597Z,1.90
2019-02-21T22:29:51.590Z,1.82
2019-02-21T22:32:57.555Z,1.80
2019-02-21T22:36:03.549Z,1.65
2019-02-21T22:39:16.398Z,1.45
2019-02-21T22:42:17.484Z,1.60
2019-02-21T22:45:23.436Z,1.37
2019-02-21T22:48:29.611Z,1.37
2019-02-21T22:51:54.549Z,1.60
2019-02-21T22:55:09.895Z,1.50
2019-02-21T22:58:11.808Z,1.50
2019-02-21T23:01:38.519Z,1.62
2019-02-21T23:05:21.264Z,1.42
2019-02-21T23:08:44.289Z,1.42
2019-02-21T23:11:50.239Z,1.10
2019-02-21T23:14:56.299Z,1.25
2019-02-21T23:18:02.259Z,1.40
2019-02-21T23:21:08.323Z,1.50
2019-02-21T23:24:14.187Z,1.27
2019-02-21T23:27:20.147Z,1.40
2019-02-21T23:30:26.920Z,1.20
2019-02-21T23:33:34.489Z,1.30
2019-02-21T23:36:40.520Z,1.20
2019-02-21T23:39:46.536Z,1.40
2019-02-21T23:42:52.496Z,1.40
2019-02-21T23:45:58.411Z,1.10
2019-02-21T23:49:04.379Z,1.17
2019-02-21T23:52:10.159Z,1.30
2019-02-21T23:55:15.880Z,1.42
